Observations for ROME FIUMICINO, Italy (LIRF)

LIRF 191950Z 11004KT CAVOK 17/14 Q1018 NOSIG
LIRF 191920Z 13005KT CAVOK 18/14 Q1017 NOSIG
LIRF 191850Z 13006KT CAVOK 18/14 Q1017 NOSIG
LIRF 191820Z 13005KT CAVOK 18/14 Q1017 NOSIG
LIRF 191750Z 15003KT 130V190 CAVOK 19/14 Q1018 NOSIG
LIRF 191720Z 17003KT CAVOK 19/13 Q1017 NOSIG
LIRF 191650Z 17004KT CAVOK 20/13 Q1017 NOSIG
LIRF 191620Z 17004KT CAVOK 21/14 Q1017 NOSIG
LIRF 191550Z 17006KT 140V200 CAVOK 21/14 Q1017 NOSIG
LIRF 191520Z 18006KT 150V210 CAVOK 21/14 Q1017 NOSIG
LIRF 191450Z 18007KT 150V210 CAVOK 22/13 Q1017 NOSIG
LIRF 191420Z 18007KT 150V220 CAVOK 22/13 Q1017 NOSIG
LIRF 191350Z 18008KT 140V210 9999 FEW035 22/13 Q1017 NOSIG  
LIRF 191320Z 19008KT 160V220 9999 SCT035 22/14 Q1017 NOSIG  
LIRF 191250Z 20009KT 160V230 9999 SCT030 22/14 Q1017 NOSIG  
LIRF 191220Z 19008KT 9999 SCT027 22/15 Q1017 NOSIG  
LIRF 191150Z 19007KT 9999 SCT035 22/14 Q1017 NOSIG  
LIRF 191120Z 17006KT 130V210 9999 SCT035 23/15 Q1018 NOSIG  
LIRF 191050Z 19007KT 150V220 9999 SCT035 22/14 Q1018 NOSIG  
LIRF 191020Z 19006KT 150V220 9999 SCT030 22/14 Q1018 NOSIG  
LIRF 190950Z 19005KT 9999 SCT030 22/14 Q1018 NOSIG  
LIRF 190920Z VRB04KT CAVOK 21/14 Q1018 NOSIG
LIRF 190850Z 12004KT 080V160 CAVOK 20/14 Q1018 NOSIG
LIRF 190820Z 10006KT CAVOK 18/13 Q1018 NOSIG
LIRF 190750Z 08005KT 060V130 CAVOK 17/14 Q1018 NOSIG
LIRF 190720Z 07005KT CAVOK 15/12 Q1018 NOSIG
LIRF 190650Z 09005KT CAVOK 14/12 Q1018 NOSIG
LIRF 190620Z 09005KT CAVOK 13/12 Q1017 NOSIG
LIRF 190550Z 09006KT CAVOK 12/12 Q1017 NOSIG
LIRF 190520Z 07003KT CAVOK 12/11 Q1017 NOSIG
LIRF 190450Z 08004KT CAVOK 12/11 Q1017 NOSIG
LIRF 190420Z 07004KT CAVOK 12/11 Q1017 NOSIG
LIRF 190350Z 07002KT CAVOK 12/12 Q1017 NOSIG
LIRF 190320Z 05003KT CAVOK 12/12 Q1017 NOSIG
LIRF 190250Z 09003KT CAVOK 12/12 Q1017 NOSIG
LIRF 190220Z 07004KT CAVOK 12/12 Q1018 NOSIG
LIRF 190150Z 06002KT CAVOK 12/12 Q1018 NOSIG
LIRF 190120Z 06003KT CAVOK 13/12 Q1018 NOSIG
LIRF 190050Z 05002KT CAVOK 13/12 Q1018 NOSIG
LIRF 190020Z 06003KT CAVOK 13/12 Q1018 NOSIG
LIRF 182350Z 10004KT CAVOK 13/13 Q1018 NOSIG
LIRF 182320Z 10003KT CAVOK 14/13 Q1018 NOSIG
LIRF 182250Z 11003KT CAVOK 14/13 Q1018 NOSIG
LIRF 182220Z 09002KT CAVOK 14/13 Q1018 NOSIG
LIRF 182150Z 07003KT CAVOK 14/13 Q1018 NOSIG
LIRF 182120Z 09005KT CAVOK 15/13 Q1018 NOSIG
LIRF 182050Z 08005KT CAVOK 15/13 Q1018 NOSIG
LIRF 182020Z 09004KT CAVOK 16/14 Q1018 NOSIG
LIRF 181950Z 08004KT CAVOK 16/14 Q1018 NOSIG
LIRF 181920Z 03002KT CAVOK 16/14 Q1018 NOSIG